Dalanzadgad, Mongolia
Current Conditions -  °F | °C
As of 5:30 AM on Monday 24 Nov 2014 (Local Time) from ZMUB Reporting Station
Clear Clear  
Wind Chill:   Ceiling: Unl
Heat Index:   Visibility: 5mi
Dew Point: -2°   Wind: 2mph
Humidity: 62%   Direction: NA
Pressure: 29.94"   Gusts: NA
Location:  43.58°N, 104.43°E
Report Text: ZMUB 232130Z VRB01MPS 8000NW NSC M13/M19 Q1014 NOSIG RMK QFE653.8 58 NT
Loading
Personal Weather Stations






























Interactive Weather Map New forecast layout! Learn more

10-Day Weather Forecast

Advertisements
Track Severe Weather on mobile